Time;durP1;ratioP1;P1;durP2;ratioP2;P2;SDS_P1;SDS_P2;PMS_P1;PMS_P2;Temp;Humidity;BMP_temperature;BMP_pressure;BME280_temperature;BME280_humidity;BME280_pressure;Samples;Min_cycle;Max_cycle;Signal;HPM_P1;HPM_P2
2023/11/25 00:00:16;;;;;;;2.40;1.70;;;;;;;;;;2094450;28;20029;-63
2023/11/25 00:01:36;;;;;;;1.52;1.33;;;;;;;;;;2084814;28;20065;-63
2023/11/25 00:02:56;;;;;;;1.38;1.27;;;;;;;;;;2091138;28;20028;-64
2023/11/25 00:04:15;;;;;;;2.35;2.13;;;;;;;;;;2094161;28;20025;-64
2023/11/25 00:05:34;;;;;;;2.83;1.27;;;;;;;;;;2094725;28;20553;-63
2023/11/25 00:06:53;;;;;;;2.15;1.05;;;;;;;;;;2096097;28;20028;-63
2023/11/25 00:08:12;;;;;;;2.45;1.45;;;;;;;;;;2094661;28;20020;-64
2023/11/25 00:09:32;;;;;;;3.45;1.70;;;;;;;;;;2096025;28;20504;-63
2023/11/25 00:10:50;;;;;;;1.70;1.60;;;;;;;;;;2096854;28;20036;-64
2023/11/25 00:12:09;;;;;;;2.15;1.80;;;;;;;;;;2095201;28;20520;-64
2023/11/25 00:13:28;;;;;;;1.45;1.35;;;;;;;;;;2094808;28;20028;-63
2023/11/25 00:14:47;;;;;;;2.47;1.42;;;;;;;;;;2094013;28;20021;-64
2023/11/25 00:16:07;;;;;;;3.10;1.67;;;;;;;;;;2093783;28;20016;-64
2023/11/25 00:17:28;;;;;;;2.22;1.60;;;;;;;;;;2096647;28;20107;-64
2023/11/25 00:18:48;;;;;;;1.10;1.00;;;;;;;;;;2096389;28;20029;-63
2023/11/25 00:20:07;;;;;;;1.70;1.60;;;;;;;;;;2094115;28;20397;-64
2023/11/25 00:21:26;;;;;;;1.60;1.50;;;;;;;;;;2098107;28;20591;-64
2023/11/25 00:22:45;;;;;;;1.90;1.80;;;;;;;;;;2095835;28;20060;-63
2023/11/25 00:24:04;;;;;;;1.65;1.55;;;;;;;;;;2096609;28;20033;-63
2023/11/25 00:25:24;;;;;;;1.60;1.50;;;;;;;;;;2094905;28;20154;-63
2023/11/25 00:26:43;;;;;;;2.83;1.58;;;;;;;;;;2096976;28;20062;-63
2023/11/25 00:28:04;;;;;;;3.03;1.60;;;;;;;;;;2097156;28;20025;-63
2023/11/25 00:29:23;;;;;;;2.25;2.03;;;;;;;;;;2096508;28;20044;-63
2023/11/25 00:30:42;;;;;;;5.63;1.80;;;;;;;;;;2095086;28;20029;-63
2023/11/25 00:32:02;;;;;;;2.55;1.73;;;;;;;;;;2094947;28;20059;-63
2023/11/25 00:33:21;;;;;;;1.80;1.58;;;;;;;;;;2095638;28;20037;-63
2023/11/25 00:34:40;;;;;;;2.70;1.85;;;;;;;;;;2097408;28;20071;-64
2023/11/25 00:35:59;;;;;;;2.75;1.50;;;;;;;;;;2095037;28;21429;-63
2023/11/25 00:37:18;;;;;;;1.98;1.75;;;;;;;;;;2095264;28;20026;-63
2023/11/25 00:38:37;;;;;;;1.88;1.58;;;;;;;;;;2096222;28;20020;-63
2023/11/25 00:39:56;;;;;;;1.67;1.52;;;;;;;;;;2087817;28;20034;-63
2023/11/25 00:41:15;;;;;;;3.38;2.03;;;;;;;;;;2094132;28;20048;-63
2023/11/25 00:42:34;;;;;;;2.00;1.83;;;;;;;;;;2093135;28;20032;-63
2023/11/25 00:43:53;;;;;;;2.25;1.83;;;;;;;;;;2087903;28;20501;-63
2023/11/25 00:45:14;;;;;;;2.00;1.58;;;;;;;;;;2094718;28;20036;-63
2023/11/25 00:46:33;;;;;;;1.67;1.58;;;;;;;;;;2095667;28;20111;-63
2023/11/25 00:47:53;;;;;;;1.98;1.63;;;;;;;;;;2094996;28;20029;-63
2023/11/25 00:49:13;;;;;;;2.67;2.00;;;;;;;;;;2093128;28;20895;-63
2023/11/25 00:50:32;;;;;;;2.35;1.80;;;;;;;;;;2096302;28;20032;-63
2023/11/25 00:51:51;;;;;;;2.58;2.00;;;;;;;;;;2095991;28;20024;-63
2023/11/25 00:53:10;;;;;;;2.10;1.90;;;;;;;;;;2088631;28;20029;-63
2023/11/25 00:54:29;;;;;;;1.98;1.83;;;;;;;;;;2083357;28;20420;-63
2023/11/25 00:55:55;;;;;;;2.33;2.13;;;;;;;;;;2092726;28;20119;-63
2023/11/25 00:57:15;;;;;;;2.53;2.15;;;;;;;;;;2086436;28;20033;-64
2023/11/25 00:58:34;;;;;;;3.05;2.40;;;;;;;;;;2091337;28;20502;-64
2023/11/25 00:59:53;;;;;;;2.70;2.10;;;;;;;;;;2097476;28;20482;-63
2023/11/25 01:01:12;;;;;;;2.20;1.90;;;;;;;;;;2088585;28;20158;-63
2023/11/25 01:02:31;;;;;;;2.25;1.58;;;;;;;;;;2094916;28;20033;-63
2023/11/25 01:03:50;;;;;;;4.65;1.90;;;;;;;;;;2097321;28;20040;-63
2023/11/25 01:05:09;;;;;;;3.67;2.05;;;;;;;;;;2096380;28;20478;-63
2023/11/25 01:06:28;;;;;;;2.22;2.03;;;;;;;;;;2085491;28;20036;-64
2023/11/25 01:07:48;;;;;;;5.60;2.03;;;;;;;;;;2090500;28;20025;-63
2023/11/25 01:09:07;;;;;;;4.50;1.92;;;;;;;;;;2096228;28;20421;-63
2023/11/25 01:10:26;;;;;;;3.35;2.20;;;;;;;;;;2085218;28;20033;-63
2023/11/25 01:11:45;;;;;;;2.90;1.83;;;;;;;;;;2090854;28;20123;-63
2023/11/25 01:13:04;;;;;;;3.13;2.25;;;;;;;;;;2098278;28;20024;-63
2023/11/25 01:14:24;;;;;;;2.30;2.10;;;;;;;;;;2096051;28;20033;-63
2023/11/25 01:15:44;;;;;;;3.15;1.92;;;;;;;;;;2095067;28;20020;-63
2023/11/25 01:17:03;;;;;;;3.78;2.10;;;;;;;;;;2094694;28;20111;-63
2023/11/25 01:18:22;;;;;;;2.67;1.95;;;;;;;;;;2095547;28;20025;-63
2023/11/25 01:19:42;;;;;;;2.90;2.50;;;;;;;;;;2097749;28;20385;-63
2023/11/25 01:21:01;;;;;;;4.85;2.40;;;;;;;;;;2097384;28;20029;-64
2023/11/25 01:22:20;;;;;;;3.92;2.35;;;;;;;;;;2095118;28;20024;-63
2023/11/25 01:23:39;;;;;;;2.83;2.63;;;;;;;;;;2096932;28;20033;-63
2023/11/25 01:24:58;;;;;;;5.75;2.60;;;;;;;;;;2095094;28;20029;-63
2023/11/25 01:26:17;;;;;;;5.38;2.35;;;;;;;;;;2095040;28;20037;-64
2023/11/25 01:27:36;;;;;;;4.05;2.50;;;;;;;;;;2085008;28;20029;-64
2023/11/25 01:28:56;;;;;;;2.53;2.33;;;;;;;;;;2083929;28;20108;-63
2023/11/25 01:30:15;;;;;;;2.08;1.85;;;;;;;;;;2094249;28;20024;-65
2023/11/25 01:31:34;;;;;;;6.85;2.70;;;;;;;;;;2096084;28;20501;-63
2023/11/25 01:32:54;;;;;;;2.17;1.98;;;;;;;;;;2094291;28;20036;-64
2023/11/25 01:34:13;;;;;;;2.80;2.47;;;;;;;;;;2095066;28;20116;-63
2023/11/25 01:35:33;;;;;;;2.40;2.20;;;;;;;;;;2095242;28;20025;-63
2023/11/25 01:36:52;;;;;;;3.67;2.08;;;;;;;;;;2089324;28;20025;-63
2023/11/25 01:38:11;;;;;;;2.00;1.85;;;;;;;;;;2092653;28;20033;-63
2023/11/25 01:39:30;;;;;;;2.47;1.98;;;;;;;;;;2094360;28;20024;-63
2023/11/25 01:40:52;;;;;;;2.20;1.88;;;;;;;;;;2093144;28;20397;-64
2023/11/25 01:42:11;;;;;;;3.47;1.98;;;;;;;;;;2097070;28;20032;-63
2023/11/25 01:43:30;;;;;;;6.70;2.30;;;;;;;;;;2095963;28;20068;-66
2023/11/25 01:44:49;;;;;;;2.00;1.90;;;;;;;;;;2094182;28;20020;-63
2023/11/25 01:46:10;;;;;;;2.92;2.28;;;;;;;;;;2094957;28;20020;-63
2023/11/25 01:47:30;;;;;;;2.45;2.25;;;;;;;;;;2098574;28;20048;-63
2023/11/25 01:48:52;;;;;;;2.55;2.20;;;;;;;;;;2079688;28;20429;-63
2023/11/25 01:50:10;;;;;;;2.63;2.28;;;;;;;;;;2085863;28;20017;-64
2023/11/25 01:51:31;;;;;;;2.70;2.22;;;;;;;;;;2095414;28;20032;-63
2023/11/25 01:52:51;;;;;;;4.60;2.30;;;;;;;;;;2096250;28;20493;-63
2023/11/25 01:54:12;;;;;;;2.05;1.83;;;;;;;;;;2097423;28;20029;-63
2023/11/25 01:55:32;;;;;;;2.20;2.00;;;;;;;;;;2095991;28;20056;-63
2023/11/25 01:56:53;;;;;;;2.20;2.00;;;;;;;;;;2095573;28;20020;-63
2023/11/25 01:58:15;;;;;;;2.33;2.15;;;;;;;;;;2097156;28;20427;-63
2023/11/25 01:59:34;;;;;;;2.45;2.25;;;;;;;;;;2096260;28;20599;-63
2023/11/25 02:00:53;;;;;;;2.38;2.10;;;;;;;;;;2084174;28;20480;-63
2023/11/25 02:02:14;;;;;;;4.28;1.92;;;;;;;;;;2078299;28;20067;-64
2023/11/25 02:03:33;;;;;;;2.72;2.13;;;;;;;;;;2091321;28;20025;-63
2023/11/25 02:04:53;;;;;;;3.67;2.08;;;;;;;;;;2096506;28;20017;-63
2023/11/25 02:06:11;;;;;;;2.20;1.98;;;;;;;;;;2093001;28;20060;-63
2023/11/25 02:07:30;;;;;;;5.55;2.20;;;;;;;;;;2093327;28;20074;-64
2023/11/25 02:08:50;;;;;;;2.60;2.17;;;;;;;;;;2095164;28;20033;-63
2023/11/25 02:10:11;;;;;;;5.80;2.40;;;;;;;;;;2095676;28;21639;-63
2023/11/25 02:11:30;;;;;;;2.33;2.08;;;;;;;;;;2096236;28;20041;-63
2023/11/25 02:12:48;;;;;;;4.88;2.65;;;;;;;;;;2096595;28;20663;-64
2023/11/25 02:14:08;;;;;;;3.13;2.10;;;;;;;;;;2096151;28;20072;-63
2023/11/25 02:15:27;;;;;;;3.45;2.00;;;;;;;;;;2096358;28;20037;-64
2023/11/25 02:16:46;;;;;;;2.85;1.98;;;;;;;;;;2097182;28;20029;-63
2023/11/25 02:18:05;;;;;;;2.75;2.20;;;;;;;;;;2095178;28;20075;-64
2023/11/25 02:19:24;;;;;;;3.65;1.92;;;;;;;;;;2086236;28;20044;-64
2023/11/25 02:20:45;;;;;;;2.78;2.03;;;;;;;;;;2093313;28;20028;-64
2023/11/25 02:22:07;;;;;;;3.95;2.75;;;;;;;;;;2096135;28;20147;-63
2023/11/25 02:23:27;;;;;;;2.55;2.35;;;;;;;;;;2093954;28;20028;-64
2023/11/25 02:24:47;;;;;;;3.90;2.20;;;;;;;;;;2094968;28;20025;-63
2023/11/25 02:26:08;;;;;;;2.80;2.60;;;;;;;;;;2088051;28;20024;-63
2023/11/25 02:27:27;;;;;;;3.45;2.20;;;;;;;;;;2093372;28;20386;-63
2023/11/25 02:28:46;;;;;;;2.85;2.08;;;;;;;;;;2094656;28;20510;-63
2023/11/25 02:30:06;;;;;;;4.75;2.58;;;;;;;;;;2093221;28;20513;-63
2023/11/25 02:31:24;;;;;;;4.63;2.33;;;;;;;;;;2095280;28;20488;-63
2023/11/25 02:32:43;;;;;;;8.30;2.80;;;;;;;;;;2085549;28;20073;-63
2023/11/25 02:34:02;;;;;;;3.33;2.67;;;;;;;;;;2093141;28;20050;-64
2023/11/25 02:35:21;;;;;;;3.42;2.35;;;;;;;;;;2095625;28;20072;-64
2023/11/25 02:36:41;;;;;;;2.60;2.40;;;;;;;;;;2093861;28;20024;-63
2023/11/25 02:38:00;;;;;;;3.30;2.50;;;;;;;;;;2095523;28;20016;-63
2023/11/25 02:39:20;;;;;;;2.45;2.22;;;;;;;;;;2095575;28;20057;-63
2023/11/25 02:40:39;;;;;;;3.35;2.65;;;;;;;;;;2094419;28;20037;-63
2023/11/25 02:41:59;;;;;;;2.72;2.28;;;;;;;;;;2095633;28;20032;-63
2023/11/25 02:43:17;;;;;;;2.70;2.30;;;;;;;;;;2096274;28;20502;-63
2023/11/25 02:44:37;;;;;;;4.85;2.67;;;;;;;;;;2085379;28;20086;-63
2023/11/25 02:45:56;;;;;;;5.55;2.92;;;;;;;;;;2091466;28;20029;-64
2023/11/25 02:47:15;;;;;;;3.15;2.53;;;;;;;;;;2094228;28;20041;-63
2023/11/25 02:48:37;;;;;;;2.78;1.90;;;;;;;;;;2096001;28;20037;-63
2023/11/25 02:49:56;;;;;;;2.45;2.08;;;;;;;;;;2093701;28;20056;-63
2023/11/25 02:51:15;;;;;;;3.42;2.63;;;;;;;;;;2095053;28;20024;-63
2023/11/25 02:52:34;;;;;;;2.20;2.00;;;;;;;;;;2086911;28;20486;-63
2023/11/25 02:53:54;;;;;;;4.13;2.28;;;;;;;;;;2090903;28;20115;-63
2023/11/25 02:55:13;;;;;;;3.60;2.50;;;;;;;;;;2096588;28;20028;-64
2023/11/25 02:56:32;;;;;;;2.65;2.45;;;;;;;;;;2093199;28;20024;-63
2023/11/25 02:57:52;;;;;;;3.97;2.20;;;;;;;;;;2085828;28;20458;-63
2023/11/25 02:59:12;;;;;;;5.10;2.83;;;;;;;;;;2091211;28;20029;-64
2023/11/25 03:00:36;;;;;;;3.25;2.88;;;;;;;;;;2095841;28;20024;-63
2023/11/25 03:01:58;;;;;;;3.05;2.50;;;;;;;;;;2095243;28;20599;-63
2023/11/25 03:03:17;;;;;;;4.85;2.55;;;;;;;;;;2096139;28;20052;-63
2023/11/25 03:04:41;;;;;;;3.35;2.42;;;;;;;;;;2094216;28;20020;-63
2023/11/25 03:06:00;;;;;;;3.78;3.00;;;;;;;;;;2094623;28;20033;-63
2023/11/25 03:07:19;;;;;;;2.83;2.60;;;;;;;;;;2095405;28;20029;-64
2023/11/25 03:08:39;;;;;;;5.32;3.30;;;;;;;;;;2095939;28;20032;-63
2023/11/25 03:09:58;;;;;;;3.38;2.50;;;;;;;;;;2087266;28;20602;-63
2023/11/25 03:11:18;;;;;;;4.18;3.33;;;;;;;;;;2092319;28;20020;-63
2023/11/25 03:12:41;;;;;;;2.65;2.45;;;;;;;;;;2094927;28;20040;-63
2023/11/25 03:14:00;;;;;;;5.15;2.53;;;;;;;;;;2095928;28;20032;-63
2023/11/25 03:15:19;;;;;;;3.75;2.38;;;;;;;;;;2096638;28;20025;-63
2023/11/25 03:16:38;;;;;;;2.55;2.30;;;;;;;;;;2087359;28;20502;-63
2023/11/25 03:17:57;;;;;;;2.95;2.65;;;;;;;;;;2083624;28;20025;-63
2023/11/25 03:19:16;;;;;;;2.85;2.40;;;;;;;;;;2091889;28;20382;-63
2023/11/25 03:20:35;;;;;;;3.50;2.10;;;;;;;;;;2096917;28;20394;-63
2023/11/25 03:21:54;;;;;;;2.92;2.20;;;;;;;;;;2086130;28;20025;-63
2023/11/25 03:23:14;;;;;;;2.90;1.98;;;;;;;;;;2092491;28;20021;-63
2023/11/25 03:24:33;;;;;;;3.47;1.83;;;;;;;;;;2095865;28;20036;-63
2023/11/25 03:25:52;;;;;;;2.20;1.70;;;;;;;;;;2094631;28;20028;-63
2023/11/25 03:27:13;;;;;;;4.28;2.13;;;;;;;;;;2086294;28;20115;-62
2023/11/25 03:28:32;;;;;;;1.98;1.70;;;;;;;;;;2092973;28;20032;-63
2023/11/25 03:29:51;;;;;;;2.33;1.50;;;;;;;;;;2096866;28;20040;-63
2023/11/25 03:31:12;;;;;;;3.88;1.48;;;;;;;;;;2086578;28;20029;-63
2023/11/25 03:32:31;;;;;;;1.85;1.50;;;;;;;;;;2090248;28;20492;-63
2023/11/25 03:33:50;;;;;;;1.70;1.20;;;;;;;;;;2094623;28;20032;-63
2023/11/25 03:35:09;;;;;;;3.85;1.48;;;;;;;;;;2096728;28;20418;-63
2023/11/25 03:36:29;;;;;;;1.50;1.40;;;;;;;;;;2096320;28;20032;-63
2023/11/25 03:37:48;;;;;;;5.03;1.50;;;;;;;;;;2086443;28;20033;-63
2023/11/25 03:39:09;;;;;;;1.80;1.00;;;;;;;;;;2089997;28;20037;-63
2023/11/25 03:40:28;;;;;;;1.40;1.30;;;;;;;;;;2094126;28;20398;-63
2023/11/25 03:41:47;;;;;;;1.50;1.08;;;;;;;;;;2095419;28;20522;-63
2023/11/25 03:43:06;;;;;;;1.42;1.17;;;;;;;;;;2096602;28;20033;-63
2023/11/25 03:44:25;;;;;;;1.75;1.30;;;;;;;;;;2096299;28;20029;-63
2023/11/25 03:45:44;;;;;;;3.28;1.48;;;;;;;;;;2086430;28;20033;-63
2023/11/25 03:47:03;;;;;;;1.92;1.20;;;;;;;;;;2091825;28;20044;-64
2023/11/25 03:48:22;;;;;;;2.42;1.02;;;;;;;;;;2096547;28;20029;-63
2023/11/25 03:49:42;;;;;;;1.10;1.00;;;;;;;;;;2095224;28;20032;-63
2023/11/25 03:51:01;;;;;;;2.38;1.13;;;;;;;;;;2096493;28;20021;-63
2023/11/25 03:52:21;;;;;;;1.25;1.00;;;;;;;;;;2094251;28;20039;-64
2023/11/25 03:53:40;;;;;;;2.55;1.00;;;;;;;;;;2094450;28;20040;-64
2023/11/25 03:55:02;;;;;;;1.77;0.95;;;;;;;;;;2094449;28;20115;-63
2023/11/25 03:56:21;;;;;;;2.17;0.98;;;;;;;;;;2088673;28;20410;-63
2023/11/25 03:57:43;;;;;;;1.92;1.00;;;;;;;;;;2093696;28;20024;-63
2023/11/25 03:59:02;;;;;;;2.22;1.40;;;;;;;;;;2093501;28;20024;-63
2023/11/25 04:00:22;;;;;;;1.23;1.08;;;;;;;;;;2094784;28;20061;-63
2023/11/25 04:01:43;;;;;;;1.60;1.23;;;;;;;;;;2097231;28;21125;-63
2023/11/25 04:03:02;;;;;;;1.50;1.10;;;;;;;;;;2097880;28;20020;-63
2023/11/25 04:04:21;;;;;;;2.17;1.10;;;;;;;;;;2098142;28;20028;-63
2023/11/25 04:05:40;;;;;;;2.95;1.35;;;;;;;;;;2096989;28;20041;-63
2023/11/25 04:06:59;;;;;;;1.25;1.15;;;;;;;;;;2095729;28;20028;-63
2023/11/25 04:08:18;;;;;;;2.28;0.82;;;;;;;;;;2095475;28;20020;-63
2023/11/25 04:09:37;;;;;;;2.45;1.10;;;;;;;;;;2087065;28;21385;-63
2023/11/25 04:10:56;;;;;;;0.80;0.80;;;;;;;;;;2085220;28;20025;-63
2023/11/25 04:12:15;;;;;;;0.80;0.80;;;;;;;;;;2092840;28;20020;-63
2023/11/25 04:13:34;;;;;;;1.55;1.02;;;;;;;;;;2096644;28;20033;-63
2023/11/25 04:14:53;;;;;;;1.50;0.70;;;;;;;;;;2087339;28;20033;-63
2023/11/25 04:16:12;;;;;;;1.90;0.80;;;;;;;;;;2093481;28;20044;-63
2023/11/25 04:17:30;;;;;;;0.82;0.80;;;;;;;;;;2095953;28;20037;-63
2023/11/25 04:18:50;;;;;;;0.65;0.63;;;;;;;;;;2096658;28;20556;-63
2023/11/25 04:20:13;;;;;;;3.72;0.75;;;;;;;;;;2098301;28;20500;-63
2023/11/25 04:21:31;;;;;;;;;;;;;;;;;;2095470;28;20046;-63
2023/11/25 04:22:50;;;;;;;1.45;0.70;;;;;;;;;;2097185;28;20365;-63
2023/11/25 04:24:11;;;;;;;0.65;0.65;;;;;;;;;;2096548;28;20107;-63
2023/11/25 04:25:30;;;;;;;2.45;0.70;;;;;;;;;;2095504;28;20036;-63
2023/11/25 04:26:49;;;;;;;0.90;0.60;;;;;;;;;;2097446;28;20041;-63
2023/11/25 04:28:08;;;;;;;1.27;0.70;;;;;;;;;;2095926;28;20020;-63
2023/11/25 04:29:28;;;;;;;2.72;0.80;;;;;;;;;;2097724;28;20028;-63
2023/11/25 04:30:46;;;;;;;2.28;0.80;;;;;;;;;;2096847;28;20036;-63
2023/11/25 04:32:06;;;;;;;3.30;0.80;;;;;;;;;;2088481;28;20397;-63
2023/11/25 04:33:25;;;;;;;0.95;0.50;;;;;;;;;;2093647;28;20032;-63
2023/11/25 04:34:44;;;;;;;1.08;0.90;;;;;;;;;;2096672;28;20568;-63
2023/11/25 04:36:03;;;;;;;1.75;0.65;;;;;;;;;;2095057;28;20401;-63
2023/11/25 04:37:22;;;;;;;0.90;0.60;;;;;;;;;;2093879;28;20029;-63
2023/11/25 04:38:41;;;;;;;0.90;0.60;;;;;;;;;;2096072;28;20056;-63
2023/11/25 04:40:01;;;;;;;1.67;0.60;;;;;;;;;;2098121;28;20028;-63
2023/11/25 04:41:22;;;;;;;1.38;0.50;;;;;;;;;;2087285;28;20100;-63
2023/11/25 04:42:41;;;;;;;0.90;0.60;;;;;;;;;;2090753;28;20391;-63
2023/11/25 04:44:00;;;;;;;0.70;0.52;;;;;;;;;;2095708;28;20842;-63
2023/11/25 04:45:20;;;;;;;0.70;0.70;;;;;;;;;;2095352;28;20111;-64
2023/11/25 04:46:40;;;;;;;0.75;0.40;;;;;;;;;;2098294;28;20029;-63
2023/11/25 04:47:59;;;;;;;0.80;0.60;;;;;;;;;;2095003;28;20477;-63
2023/11/25 04:49:18;;;;;;;2.40;0.65;;;;;;;;;;2088962;28;20113;-63
2023/11/25 04:50:37;;;;;;;1.95;0.70;;;;;;;;;;2091977;28;20028;-63
2023/11/25 04:51:56;;;;;;;1.38;0.90;;;;;;;;;;2087267;28;20060;-64
2023/11/25 04:53:15;;;;;;;2.60;0.70;;;;;;;;;;2092799;28;20024;-63
2023/11/25 04:54:34;;;;;;;2.58;1.00;;;;;;;;;;2095045;28;20032;-63
2023/11/25 04:55:53;;;;;;;2.97;0.95;;;;;;;;;;2098029;28;20028;-63
2023/11/25 04:57:13;;;;;;;0.85;0.70;;;;;;;;;;2097392;28;20537;-65
2023/11/25 04:58:32;;;;;;;1.02;0.43;;;;;;;;;;2096772;28;20111;-63
2023/11/25 04:59:51;;;;;;;2.10;0.80;;;;;;;;;;2095807;28;20139;-63
2023/11/25 05:01:10;;;;;;;1.40;0.65;;;;;;;;;;2086969;28;20025;-64
2023/11/25 05:02:28;;;;;;;1.15;0.60;;;;;;;;;;2092410;28;20020;-64
2023/11/25 05:03:48;;;;;;;2.40;0.65;;;;;;;;;;2095651;28;20449;-64
2023/11/25 05:05:07;;;;;;;2.95;0.80;;;;;;;;;;2086478;28;20025;-63
2023/11/25 05:06:26;;;;;;;0.88;0.60;;;;;;;;;;2087716;28;20028;-63
2023/11/25 05:07:45;;;;;;;2.17;0.70;;;;;;;;;;2094967;28;20044;-63
2023/11/25 05:09:05;;;;;;;0.95;0.60;;;;;;;;;;2095995;28;20021;-64
2023/11/25 05:10:24;;;;;;;1.75;1.08;;;;;;;;;;2092090;28;20028;-64
2023/11/25 05:11:43;;;;;;;2.00;0.68;;;;;;;;;;2096723;28;20029;-64
2023/11/25 05:13:02;;;;;;;1.65;0.80;;;;;;;;;;2097308;28;20056;-63
2023/11/25 05:14:21;;;;;;;2.08;0.80;;;;;;;;;;2097424;28;20037;-63
2023/11/25 05:15:41;;;;;;;2.65;0.60;;;;;;;;;;2097777;28;20042;-63
2023/11/25 05:17:00;;;;;;;1.80;0.88;;;;;;;;;;2097750;28;20025;-63
2023/11/25 05:18:19;;;;;;;1.27;0.70;;;;;;;;;;2096224;28;20024;-63
2023/11/25 05:19:38;;;;;;;3.40;0.70;;;;;;;;;;2095498;28;20384;-63
2023/11/25 05:20:57;;;;;;;0.90;0.80;;;;;;;;;;2095929;28;20028;-63
2023/11/25 05:22:16;;;;;;;0.95;0.80;;;;;;;;;;2094686;28;20025;-63
2023/11/25 05:23:35;;;;;;;0.63;0.60;;;;;;;;;;2096395;28;20036;-63
2023/11/25 05:24:54;;;;;;;1.30;0.55;;;;;;;;;;2097212;28;20017;-63
2023/11/25 05:26:13;;;;;;;0.80;0.80;;;;;;;;;;2096003;28;20029;-63
2023/11/25 05:27:32;;;;;;;0.93;0.70;;;;;;;;;;2095652;28;20028;-63
2023/11/25 05:28:51;;;;;;;1.40;1.00;;;;;;;;;;2094483;28;20386;-63
2023/11/25 05:30:13;;;;;;;1.98;1.00;;;;;;;;;;2095698;28;20505;-63
2023/11/25 05:31:35;;;;;;;2.53;0.83;;;;;;;;;;2097613;28;20033;-63
2023/11/25 05:32:54;;;;;;;1.60;0.90;;;;;;;;;;2097663;28;20713;-63
2023/11/25 05:34:13;;;;;;;2.47;0.98;;;;;;;;;;2094898;28;20037;-63
2023/11/25 05:35:32;;;;;;;1.45;0.80;;;;;;;;;;2096176;28;20397;-63
2023/11/25 05:36:51;;;;;;;1.50;0.73;;;;;;;;;;2095348;28;20485;-63
2023/11/25 05:38:10;;;;;;;1.42;0.95;;;;;;;;;;2096302;28;20060;-63
2023/11/25 05:39:29;;;;;;;1.25;0.85;;;;;;;;;;2094967;28;20024;-63
2023/11/25 05:40:48;;;;;;;1.55;1.10;;;;;;;;;;2096458;28;20025;-63
2023/11/25 05:42:07;;;;;;;2.17;0.90;;;;;;;;;;2088329;28;20390;-63
2023/11/25 05:43:26;;;;;;;1.48;1.10;;;;;;;;;;2093544;28;20028;-63
2023/11/25 05:44:45;;;;;;;1.58;0.93;;;;;;;;;;2087991;28;20017;-63
2023/11/25 05:46:05;;;;;;;1.77;0.90;;;;;;;;;;2084068;28;20042;-63
2023/11/25 05:47:24;;;;;;;1.77;1.00;;;;;;;;;;2091997;28;20076;-63
2023/11/25 05:48:43;;;;;;;1.50;0.90;;;;;;;;;;2095305;28;20413;-63
2023/11/25 05:50:03;;;;;;;1.08;1.00;;;;;;;;;;2095638;28;20488;-63
2023/11/25 05:51:22;;;;;;;3.90;0.90;;;;;;;;;;2095762;28;20036;-63
2023/11/25 05:52:42;;;;;;;0.90;0.90;;;;;;;;;;2093640;28;20559;-63
2023/11/25 05:54:01;;;;;;;2.05;0.82;;;;;;;;;;2096892;28;20040;-63
2023/11/25 05:55:20;;;;;;;3.63;1.10;;;;;;;;;;2097192;28;20304;-63
2023/11/25 05:56:40;;;;;;;0.90;0.90;;;;;;;;;;2096174;28;20493;-63
2023/11/25 05:57:59;;;;;;;1.73;1.08;;;;;;;;;;2093591;28;20565;-63
2023/11/25 05:59:18;;;;;;;3.45;0.93;;;;;;;;;;2096272;28;20024;-63
2023/11/25 06:00:37;;;;;;;1.80;1.10;;;;;;;;;;2093587;28;20091;-64
2023/11/25 06:01:56;;;;;;;1.08;0.88;;;;;;;;;;2095034;28;20447;-63
2023/11/25 06:03:15;;;;;;;1.58;0.88;;;;;;;;;;2095784;28;20071;-63
2023/11/25 06:04:33;;;;;;;1.15;0.98;;;;;;;;;;2096444;28;20024;-64
2023/11/25 06:05:52;;;;;;;2.67;1.00;;;;;;;;;;2095042;28;20524;-63
2023/11/25 06:07:12;;;;;;;2.03;0.90;;;;;;;;;;2094596;28;20040;-63
2023/11/25 06:08:30;;;;;;;1.35;0.90;;;;;;;;;;2093876;28;20037;-63
2023/11/25 06:09:49;;;;;;;2.88;1.05;;;;;;;;;;2096455;28;20446;-63
2023/11/25 06:11:18;;;;;;;1.10;1.00;;;;;;;;;;2088400;28;20068;-63
2023/11/25 06:12:37;;;;;;;1.13;0.88;;;;;;;;;;2095011;28;20032;-63
2023/11/25 06:13:56;;;;;;;1.23;1.00;;;;;;;;;;2096345;28;20028;-63
2023/11/25 06:15:18;;;;;;;1.45;1.00;;;;;;;;;;2094479;28;20036;-63
2023/11/25 06:16:41;;;;;;;2.65;1.10;;;;;;;;;;2094877;28;20025;-63
2023/11/25 06:18:00;;;;;;;1.38;1.15;;;;;;;;;;2095088;28;20032;-63
2023/11/25 06:19:20;;;;;;;3.45;1.23;;;;;;;;;;2094514;28;20408;-63
2023/11/25 06:20:39;;;;;;;2.10;1.00;;;;;;;;;;2094825;28;20032;-63
2023/11/25 06:21:59;;;;;;;1.40;0.95;;;;;;;;;;2094941;28;20335;-63
2023/11/25 06:23:18;;;;;;;1.38;0.95;;;;;;;;;;2097081;28;20032;-63
2023/11/25 06:24:37;;;;;;;2.72;1.10;;;;;;;;;;2085089;28;20037;-63
2023/11/25 06:25:55;;;;;;;1.02;0.63;;;;;;;;;;2090432;28;20064;-63
2023/11/25 06:27:16;;;;;;;4.05;1.73;;;;;;;;;;2095208;28;20068;-63
2023/11/25 06:28:38;;;;;;;2.00;0.77;;;;;;;;;;2097124;28;20048;-63
2023/11/25 06:29:58;;;;;;;4.15;1.27;;;;;;;;;;2096066;28;20032;-63
2023/11/25 06:31:17;;;;;;;1.67;1.00;;;;;;;;;;2094179;28;20111;-63
2023/11/25 06:32:37;;;;;;;1.10;1.00;;;;;;;;;;2093266;28;20220;-63
2023/11/25 06:33:58;;;;;;;3.72;1.10;;;;;;;;;;2093497;28;20020;-63
2023/11/25 06:35:17;;;;;;;1.85;1.00;;;;;;;;;;2086775;28;20053;-63
2023/11/25 06:36:36;;;;;;;1.95;0.98;;;;;;;;;;2092876;28;20024;-63
2023/11/25 06:37:55;;;;;;;1.27;1.13;;;;;;;;;;2095675;28;20028;-63
2023/11/25 06:39:14;;;;;;;1.65;1.05;;;;;;;;;;2094207;28;20029;-63
2023/11/25 06:40:34;;;;;;;1.55;1.20;;;;;;;;;;2095527;28;20029;-63
2023/11/25 06:41:54;;;;;;;1.65;1.02;;;;;;;;;;2087695;28;20033;-63
2023/11/25 06:43:13;;;;;;;1.70;1.00;;;;;;;;;;2091027;28;20021;-63
2023/11/25 06:44:31;;;;;;;1.52;1.00;;;;;;;;;;2093210;28;20024;-63
2023/11/25 06:45:51;;;;;;;2.17;1.08;;;;;;;;;;2094959;28;20036;-63
2023/11/25 06:47:13;;;;;;;2.20;1.20;;;;;;;;;;2094029;28;20080;-64
2023/11/25 06:48:33;;;;;;;2.28;0.90;;;;;;;;;;2092929;28;20040;-63
2023/11/25 06:49:52;;;;;;;2.35;1.00;;;;;;;;;;2093822;28;20028;-63
2023/11/25 06:51:11;;;;;;;4.70;1.17;;;;;;;;;;2093785;28;20032;-63
2023/11/25 06:52:31;;;;;;;1.10;1.00;;;;;;;;;;2085051;28;20060;-63
2023/11/25 06:53:50;;;;;;;2.17;1.20;;;;;;;;;;2091441;28;20029;-63
2023/11/25 06:55:09;;;;;;;1.10;1.00;;;;;;;;;;2094785;28;20578;-63
2023/11/25 06:56:28;;;;;;;0.93;0.85;;;;;;;;;;2095773;28;20033;-63
2023/11/25 06:57:49;;;;;;;1.48;1.13;;;;;;;;;;2094723;28;20032;-63
2023/11/25 06:59:08;;;;;;;1.42;1.10;;;;;;;;;;2094041;28;20064;-64
2023/11/25 07:00:27;;;;;;;3.40;1.00;;;;;;;;;;2095284;28;20020;-64
2023/11/25 07:01:46;;;;;;;2.08;1.00;;;;;;;;;;2093613;28;20426;-63
2023/11/25 07:03:05;;;;;;;1.45;1.00;;;;;;;;;;2093806;28;20486;-63
2023/11/25 07:04:24;;;;;;;2.47;1.35;;;;;;;;;;2095034;28;20033;-63
2023/11/25 07:05:43;;;;;;;1.70;1.00;;;;;;;;;;2095826;28;20045;-63
2023/11/25 07:07:02;;;;;;;1.65;1.38;;;;;;;;;;2094172;28;20058;-63
2023/11/25 07:08:21;;;;;;;1.67;1.15;;;;;;;;;;2094538;28;20093;-63
2023/11/25 07:09:40;;;;;;;1.48;1.38;;;;;;;;;;2094314;28;20477;-63
2023/11/25 07:11:01;;;;;;;3.90;1.10;;;;;;;;;;2095314;28;20040;-63
2023/11/25 07:12:20;;;;;;;2.67;1.20;;;;;;;;;;2096171;28;20033;-63
2023/11/25 07:13:40;;;;;;;1.23;1.13;;;;;;;;;;2096953;28;20028;-63
2023/11/25 07:14:59;;;;;;;1.98;1.30;;;;;;;;;;2095005;28;20135;-63
2023/11/25 07:16:18;;;;;;;1.40;1.30;;;;;;;;;;2094984;28;20040;-63
2023/11/25 07:17:37;;;;;;;1.25;1.15;;;;;;;;;;2095213;28;20024;-63
2023/11/25 07:18:56;;;;;;;1.77;1.30;;;;;;;;;;2093988;28;20029;-63
2023/11/25 07:20:18;;;;;;;1.33;1.23;;;;;;;;;;2096720;28;20508;-63
2023/11/25 07:21:37;;;;;;;7.80;1.80;;;;;;;;;;2096738;28;20480;-63
2023/11/25 07:22:56;;;;;;;1.42;1.30;;;;;;;;;;2092804;28;20737;-63
2023/11/25 07:24:15;;;;;;;2.00;1.30;;;;;;;;;;2095799;28;20037;-63
2023/11/25 07:25:37;;;;;;;2.40;1.73;;;;;;;;;;2096405;28;20029;-63
2023/11/25 07:27:01;;;;;;;2.65;1.67;;;;;;;;;;2092009;28;20056;-63
2023/11/25 07:28:20;;;;;;;1.60;1.40;;;;;;;;;;2086880;28;20692;-63
2023/11/25 07:29:41;;;;;;;4.35;1.30;;;;;;;;;;2091340;28;20489;-65
2023/11/25 07:31:00;;;;;;;19.80;1.90;;;;;;;;;;2095134;28;20501;-63
2023/11/25 07:32:22;;;;;;;2.13;1.40;;;;;;;;;;2094280;28;21025;-63
2023/11/25 07:33:41;;;;;;;1.83;1.35;;;;;;;;;;2095163;28;20029;-63
2023/11/25 07:35:00;;;;;;;13.25;2.25;;;;;;;;;;2096058;28;20514;-63
2023/11/25 07:36:20;;;;;;;4.30;1.55;;;;;;;;;;2096500;28;20111;-63
2023/11/25 07:37:40;;;;;;;2.22;1.77;;;;;;;;;;2096768;28;20028;-62
2023/11/25 07:38:59;;;;;;;2.80;1.50;;;;;;;;;;2094041;28;20064;-63
2023/11/25 07:40:19;;;;;;;3.10;1.65;;;;;;;;;;2085555;28;20029;-63
2023/11/25 07:41:40;;;;;;;2.47;1.80;;;;;;;;;;2081930;28;20021;-63
2023/11/25 07:43:00;;;;;;;2.63;1.30;;;;;;;;;;2092011;28;20021;-63
2023/11/25 07:44:22;;;;;;;2.90;1.50;;;;;;;;;;2097774;28;20469;-64
2023/11/25 07:45:41;;;;;;;2.55;1.40;;;;;;;;;;2094328;28;20059;-63
2023/11/25 07:47:03;;;;;;;10.82;2.20;;;;;;;;;;2095146;28;20036;-63
2023/11/25 07:48:23;;;;;;;8.13;1.85;;;;;;;;;;2087217;28;20029;-64
2023/11/25 07:49:42;;;;;;;1.70;1.38;;;;;;;;;;2092102;28;20112;-63
2023/11/25 07:51:02;;;;;;;3.95;1.90;;;;;;;;;;2094293;28;20524;-63
2023/11/25 07:52:21;;;;;;;3.55;1.77;;;;;;;;;;2085862;28;20045;-64
2023/11/25 07:53:40;;;;;;;5.35;1.83;;;;;;;;;;2091391;28;20262;-64
2023/11/25 07:54:59;;;;;;;4.03;1.60;;;;;;;;;;2094324;28;20099;-63
2023/11/25 07:56:18;;;;;;;1.60;1.35;;;;;;;;;;2095236;28;20048;-63